Weather at Sogndal Airport, Haukåsen

Public forecast

Using degrees Celsius for public forecast. Weather courtesy of forecast.io.

Current aviation weather report (METAR) for Sogndal Airport, Haukåsen

2024/05/30 03:20 (retrieved 18 minutes ago)

ENSG 300320Z AUTO 05007KT 020V080 9999 OVC066/// 12/05 Q1008 RMK WIND 3806FT 10019KT

Closest aviation forecast (TAF) to Sogndal Airport, Haukåsen

Forecast is more than 12 hours old.

Closest forecast is Quaqtaq Airport, 2,096.6 nm (3,882.8 km) NW.

2024/05/29 14:00 (retrieved 14 hours ago)

TAF CYHA 291340Z 2914/2921 28007KT P6SM BKN030 TEMPO 2914/2918 BKN020 BECMG 2916/2918 18008KT RMK NXT FCST BY 301400Z